Porto Velho の空港の天気 - METARとTAF

ポルト・ベーリョ空港 ( SBPV / PVH ) - ブラジル ロンドニア州、Porto Velho
飛行場実況気象(Metar)
観測時間11/21 08:00 AMT (11/21 12:00 UTC)
風向・風速西南西 1m/s
視程10km以上
天気現象
なし
気温24℃
湿度94%
気圧1012hPa
METARSBPV 211200Z 25001KT CAVOK 24/23 Q1012
過去の天気等 Google飛行場航空写真 Wunderground天気予報

過去48時間のMETAR

飛行場予報(TAF)
発表時間: 11/21 05:30 AMT (11/21 09:30 UTC)
予報対象時間: 21日8時 AMT ~ 22日8時 AMT
風向・風速西北西 3m/s
視程10km以上
全天の4割程度の雲 雲底高度 610m
21日8時 AMT ~ 21日10時 AMT に徐々に
風向・風速北西 3m/s
21日12時 AMT ~ 21日14時 AMT に徐々に
風向・風速西南西 3m/s
全天の4割程度の雲 雲底高度 610m
少しの塔状積雲 雲底高度 910m
22日2時 AMT ~ 22日4時 AMT に徐々に
風向・風速西 3m/s
全天の4割程度の雲 雲底高度 610m
22日5時 AMT ~ 22日7時 AMT に徐々に
風向・風速西南西 3m/s
TAF SBPV 210930Z 2112/2212 29005KT 9999 SCT020 TX30/2117Z TN24/2208Z
BECMG 2112/2114 32005KT
BECMG 2116/2118 24005KT SCT020 FEW030TCU
BECMG 2206/2208 26005KT SCT020
BECMG 2209/2211 24005KT RMK PGW